createdAt,value
2022-09-06T00:02:11.382Z,3.90
2022-09-06T00:04:57.399Z,3.50
2022-09-06T00:07:43.371Z,4.05
2022-09-06T00:10:30.793Z,4.22
2022-09-06T00:13:16.552Z,3.30
2022-09-06T00:16:14.492Z,3.08
2022-09-06T00:19:00.706Z,4.15
2022-09-06T00:21:46.746Z,3.85
2022-09-06T00:24:32.805Z,3.97
2022-09-06T00:27:18.926Z,4.20
2022-09-06T00:30:05.525Z,4.43
2022-09-06T00:32:51.712Z,3.80
2022-09-06T00:35:36.929Z,3.75
2022-09-06T00:38:23.103Z,3.67
2022-09-06T00:41:11.058Z,3.58
2022-09-06T00:43:56.764Z,3.58
2022-09-06T00:46:45.244Z,3.80
2022-09-06T00:49:46.452Z,3.75
2022-09-06T00:52:33.534Z,3.72
2022-09-06T00:55:20.506Z,3.92
2022-09-06T00:58:06.345Z,3.63
2022-09-06T01:00:52.243Z,3.75
2022-09-06T01:03:38.926Z,3.92
2022-09-06T01:06:33.879Z,3.67
2022-09-06T01:09:24.797Z,3.30
2022-09-06T01:12:25.921Z,3.92
2022-09-06T01:15:23.696Z,3.50
2022-09-06T01:18:26.934Z,3.45
2022-09-06T01:21:34.610Z,3.50
2022-09-06T01:24:45.302Z,3.42
2022-09-06T01:27:37.134Z,3.30
2022-09-06T01:30:24.016Z,3.30
2022-09-06T01:33:16.857Z,3.25
2022-09-06T01:36:08.023Z,3.30
2022-09-06T01:38:54.157Z,3.17
2022-09-06T01:41:40.247Z,2.90
2022-09-06T01:44:28.874Z,2.95
2022-09-06T01:47:22.049Z,3.10
2022-09-06T01:50:29.461Z,3.08
2022-09-06T01:53:53.018Z,2.83
2022-09-06T01:56:59.298Z,3.20
2022-09-06T02:00:12.361Z,3.33
2022-09-06T02:03:20.106Z,3.55
2022-09-06T02:06:20.586Z,4.00
2022-09-06T02:09:15.498Z,3.15
2022-09-06T02:12:04.323Z,3.25
2022-09-06T02:15:10.503Z,3.38
2022-09-06T02:18:03.414Z,2.80
2022-09-06T02:20:56.919Z,3.20
2022-09-06T02:23:44.314Z,3.10
2022-09-06T02:26:35.623Z,2.78
2022-09-06T02:29:21.473Z,2.47
2022-09-06T02:32:25.942Z,2.85
2022-09-06T02:35:16.854Z,2.65
2022-09-06T02:38:02.659Z,2.60
2022-09-06T02:40:50.331Z,2.50
2022-09-06T02:43:36.265Z,2.47
2022-09-06T02:46:23.788Z,2.78
2022-09-06T02:49:09.382Z,2.90
2022-09-06T02:51:55.504Z,2.65
2022-09-06T02:54:41.436Z,2.70
2022-09-06T02:57:27.380Z,2.90
2022-09-06T03:00:13.952Z,2.72
2022-09-06T03:03:00.161Z,2.88
2022-09-06T03:05:51.533Z,2.50
2022-09-06T03:08:38.210Z,2.80
2022-09-06T03:11:24.464Z,2.70
2022-09-06T03:14:10.559Z,2.50
2022-09-06T03:16:56.153Z,2.50
2022-09-06T03:19:41.941Z,2.80
2022-09-06T03:22:28.042Z,2.53
2022-09-06T03:25:13.476Z,2.70
2022-09-06T03:27:58.780Z,2.72
2022-09-06T03:30:49.089Z,3.05
2022-09-06T03:33:35.233Z,2.50
2022-09-06T03:36:22.396Z,2.25
2022-09-06T03:39:08.467Z,2.50
2022-09-06T03:41:54.620Z,2.50
2022-09-06T03:44:39.925Z,2.45
2022-09-06T03:47:25.900Z,2.63
2022-09-06T03:50:11.791Z,2.42
2022-09-06T03:52:57.651Z,2.67
2022-09-06T03:55:48.338Z,2.38
2022-09-06T03:58:34.137Z,2.50
2022-09-06T04:01:20.357Z,2.75
2022-09-06T04:04:06.240Z,2.58
2022-09-06T04:06:52.166Z,2.67
2022-09-06T04:09:37.957Z,2.42
2022-09-06T04:12:23.897Z,2.53
2022-09-06T04:15:09.868Z,3.03
2022-09-06T04:17:55.941Z,2.75
2022-09-06T04:20:42.569Z,3.25
2022-09-06T04:23:29.184Z,2.70
2022-09-06T04:26:15.049Z,2.78
2022-09-06T04:29:00.840Z,3.03
2022-09-06T04:31:46.439Z,2.85
2022-09-06T04:34:32.416Z,3.50
2022-09-06T04:37:20.092Z,3.03
2022-09-06T04:40:06.792Z,3.25
2022-09-06T04:42:52.637Z,3.55
2022-09-06T04:45:38.525Z,3.55
2022-09-06T04:48:24.544Z,3.38
2022-09-06T04:51:10.057Z,3.30
2022-09-06T04:53:55.950Z,3.63
2022-09-06T04:56:41.823Z,3.40
2022-09-06T04:59:27.803Z,3.28
2022-09-06T05:02:13.399Z,3.03
2022-09-06T05:04:59.572Z,3.53
2022-09-06T05:07:45.262Z,2.97
2022-09-06T05:10:31.102Z,3.25
2022-09-06T05:13:17.277Z,3.40
2022-09-06T05:16:08.534Z,3.30
2022-09-06T05:18:54.060Z,3.20
2022-09-06T05:21:39.638Z,4.13
2022-09-06T05:24:25.520Z,3.40
2022-09-06T05:27:12.862Z,3.70
2022-09-06T05:29:58.265Z,3.60
2022-09-06T05:32:43.774Z,3.20
2022-09-06T05:35:29.781Z,3.70
2022-09-06T05:38:15.762Z,3.20
2022-09-06T05:41:01.469Z,2.92
2022-09-06T05:43:49.424Z,3.40
2022-09-06T05:46:42.672Z,3.20
2022-09-06T05:49:32.725Z,3.13
2022-09-06T05:52:19.863Z,3.20
2022-09-06T05:55:06.575Z,3.17
2022-09-06T05:57:53.468Z,3.20
2022-09-06T06:00:39.478Z,3.20
2022-09-06T06:03:25.345Z,3.22
2022-09-06T06:06:11.097Z,3.00
2022-09-06T06:08:57.224Z,3.25
2022-09-06T06:11:43.640Z,3.65
2022-09-06T06:14:29.694Z,3.38
2022-09-06T06:17:16.376Z,3.25
2022-09-06T06:20:03.032Z,3.88
2022-09-06T06:22:48.588Z,4.05
2022-09-06T06:25:34.420Z,5.10
2022-09-06T06:28:21.066Z,4.55
2022-09-06T06:31:09.634Z,6.10
2022-09-06T06:33:54.981Z,5.93
2022-09-06T06:36:41.006Z,5.80
2022-09-06T06:39:27.085Z,5.47
2022-09-06T06:42:13.037Z,5.30
2022-09-06T06:45:10.525Z,5.53
2022-09-06T06:47:56.317Z,5.38
2022-09-06T06:50:42.535Z,5.22
2022-09-06T06:53:28.503Z,5.47
2022-09-06T06:56:28.424Z,4.93
2022-09-06T06:59:14.522Z,4.90
2022-09-06T07:02:00.882Z,6.00
2022-09-06T07:04:46.517Z,5.28
2022-09-06T07:07:33.582Z,4.50
2022-09-06T07:10:36.527Z,4.97
2022-09-06T07:13:22.408Z,5.05
2022-09-06T07:16:21.946Z,5.40
2022-09-06T07:19:09.302Z,5.75
2022-09-06T07:22:14.532Z,4.60
2022-09-06T07:25:00.019Z,4.43
2022-09-06T07:30:33.183Z,5.40
2022-09-06T07:33:19.082Z,6.00
2022-09-06T07:36:07.456Z,5.32
2022-09-06T07:38:54.439Z,6.25
2022-09-06T07:41:40.241Z,6.35
2022-09-06T07:44:26.581Z,6.82
2022-09-06T07:53:30.900Z,3.58
2022-09-06T07:56:17.975Z,3.88
2022-09-06T07:59:04.041Z,3.22
2022-09-06T08:01:50.516Z,3.38
2022-09-06T08:04:36.103Z,2.70
2022-09-06T08:10:22.761Z,3.00
2022-09-06T08:13:08.674Z,3.35
2022-09-06T08:16:00.411Z,3.10
2022-09-06T08:18:49.507Z,3.13
2022-09-06T08:21:35.497Z,3.20
2022-09-06T08:24:21.710Z,3.22
2022-09-06T08:27:11.289Z,2.78
2022-09-06T08:29:57.053Z,2.83
2022-09-06T08:32:43.057Z,2.75
2022-09-06T08:35:28.956Z,2.60
2022-09-06T08:38:14.801Z,2.25
2022-09-06T08:41:12.773Z,3.35
2022-09-06T08:47:15.240Z,2.45
2022-09-06T08:50:11.311Z,2.78
2022-09-06T08:53:18.091Z,3.53
2022-09-06T08:56:23.345Z,2.95
2022-09-06T08:59:17.639Z,3.20
2022-09-06T09:02:20.081Z,4.40
2022-09-06T09:05:13.088Z,3.65
2022-09-06T09:08:25.393Z,3.75
2022-09-06T09:11:25.473Z,3.70
2022-09-06T09:14:13.349Z,3.30
2022-09-06T09:17:06.130Z,4.10
2022-09-06T09:22:39.996Z,3.28
2022-09-06T09:25:26.700Z,2.92
2022-09-06T09:28:23.699Z,3.28
2022-09-06T09:31:14.360Z,3.88
2022-09-06T09:34:04.521Z,3.60
2022-09-06T09:40:33.552Z,3.42
2022-09-06T09:43:40.219Z,2.70
2022-09-06T09:46:33.012Z,3.38
2022-09-06T09:49:29.914Z,5.25
2022-09-06T09:52:25.907Z,4.25
2022-09-06T09:55:12.884Z,5.00
2022-09-06T09:57:59.282Z,6.00
2022-09-06T10:00:45.911Z,6.20
2022-09-06T10:03:33.144Z,6.22
2022-09-06T10:09:42.341Z,6.00
2022-09-06T10:12:36.208Z,5.85
2022-09-06T10:15:40.384Z,7.63
2022-09-06T10:18:33.347Z,9.48
2022-09-06T10:21:22.463Z,8.60
2022-09-06T10:27:20.160Z,15.00
2022-09-06T10:30:08.867Z,11.60
2022-09-06T10:33:12.217Z,9.18
2022-09-06T10:36:00.661Z,14.15
2022-09-06T10:38:54.294Z,13.52
2022-09-06T10:42:09.197Z,17.95
2022-09-06T10:45:12.176Z,18.02
2022-09-06T10:48:05.624Z,18.08
2022-09-06T10:51:03.255Z,10.82
2022-09-06T10:54:03.036Z,15.82
2022-09-06T10:57:09.330Z,23.45
2022-09-06T11:00:17.158Z,18.60
2022-09-06T11:06:32.667Z,11.23
2022-09-06T11:09:29.553Z,13.80
2022-09-06T11:12:24.116Z,18.65
2022-09-06T11:15:13.856Z,23.58
2022-09-06T11:18:15.358Z,25.20
2022-09-06T11:21:26.934Z,24.95
2022-09-06T11:24:15.957Z,24.40
2022-09-06T11:27:28.084Z,18.35
2022-09-06T11:30:18.694Z,12.88
2022-09-06T11:33:24.776Z,12.10
2022-09-06T11:36:38.238Z,17.50
2022-09-06T11:45:59.856Z,18.73
2022-09-06T11:49:10.981Z,12.90
2022-09-06T11:51:56.993Z,15.25
2022-09-06T11:54:47.189Z,15.13
2022-09-06T11:57:33.260Z,9.80
2022-09-06T12:00:23.906Z,12.27
2022-09-06T12:06:41.965Z,9.35
2022-09-06T12:09:45.926Z,8.63
2022-09-06T12:12:48.594Z,9.82
2022-09-06T12:15:53.647Z,14.27
2022-09-06T12:18:48.785Z,12.00
2022-09-06T12:21:34.808Z,11.00
2022-09-06T12:24:35.828Z,7.30
2022-09-06T12:27:34.984Z,8.55
2022-09-06T12:30:51.099Z,4.93
2022-09-06T12:33:38.863Z,6.40
2022-09-06T12:36:32.219Z,5.78
2022-09-06T12:39:18.132Z,6.40
2022-09-06T12:42:07.392Z,7.80
2022-09-06T12:44:55.668Z,6.80
2022-09-06T12:47:42.267Z,8.48
2022-09-06T12:50:31.610Z,8.98
2022-09-06T12:53:26.619Z,8.23
2022-09-06T12:56:13.003Z,7.75
2022-09-06T12:59:19.390Z,7.55
2022-09-06T13:02:15.916Z,6.40
2022-09-06T13:05:12.296Z,6.93
2022-09-06T13:08:03.205Z,6.05
2022-09-06T13:10:49.801Z,7.78
2022-09-06T13:13:35.974Z,8.90
2022-09-06T13:16:27.996Z,5.65
2022-09-06T13:19:19.168Z,8.30
2022-09-06T13:22:08.037Z,6.75
2022-09-06T13:24:56.510Z,5.97
2022-09-06T13:27:49.918Z,4.57
2022-09-06T13:30:49.645Z,3.65
2022-09-06T13:33:37.802Z,4.30
2022-09-06T13:36:27.905Z,4.55
2022-09-06T13:39:54.948Z,4.63
2022-09-06T13:42:40.722Z,4.20
2022-09-06T13:45:31.758Z,4.63
2022-09-06T13:48:28.682Z,3.42
2022-09-06T13:51:23.996Z,3.55
2022-09-06T13:54:12.893Z,3.58
2022-09-06T13:56:58.735Z,3.10
2022-09-06T13:59:45.286Z,3.42
2022-09-06T14:02:32.467Z,3.10
2022-09-06T14:05:18.381Z,3.10
2022-09-06T14:08:04.020Z,3.15
2022-09-06T14:10:51.746Z,3.20
2022-09-06T14:13:37.450Z,2.67
2022-09-06T14:16:23.380Z,3.00
2022-09-06T14:19:10.004Z,2.83
2022-09-06T14:21:55.888Z,2.45
2022-09-06T14:24:42.244Z,3.00
2022-09-06T14:27:28.509Z,2.65
2022-09-06T14:30:14.284Z,3.58
2022-09-06T14:33:00.156Z,2.70
2022-09-06T14:35:46.330Z,3.03
2022-09-06T14:38:31.916Z,3.83
2022-09-06T14:41:20.132Z,3.00
2022-09-06T14:44:05.884Z,2.50
2022-09-06T14:46:54.540Z,2.50
2022-09-06T14:49:40.916Z,2.63
2022-09-06T14:52:27.233Z,2.50
2022-09-06T14:55:13.051Z,2.53
2022-09-06T14:57:59.650Z,2.60
2022-09-06T15:00:46.643Z,2.17
2022-09-06T15:03:33.563Z,3.05
2022-09-06T15:06:21.573Z,3.15
2022-09-06T15:09:08.010Z,2.60
2022-09-06T15:11:54.412Z,2.50
2022-09-06T15:14:41.168Z,3.00
2022-09-06T15:17:27.282Z,3.20
2022-09-06T15:20:13.267Z,3.10
2022-09-06T15:23:21.746Z,2.80
2022-09-06T15:26:08.288Z,2.28
2022-09-06T15:28:54.204Z,2.72
2022-09-06T15:31:41.909Z,2.65
2022-09-06T15:34:27.933Z,2.63
2022-09-06T15:37:13.540Z,2.65
2022-09-06T15:39:59.880Z,2.47
2022-09-06T15:42:46.401Z,2.45
2022-09-06T15:45:45.645Z,2.75
2022-09-06T15:48:41.741Z,2.60
2022-09-06T15:51:27.795Z,2.83
2022-09-06T15:54:16.186Z,3.10
2022-09-06T15:57:03.857Z,2.40
2022-09-06T15:59:49.268Z,2.53
2022-09-06T16:02:35.321Z,2.92
2022-09-06T16:08:26.893Z,2.80
2022-09-06T16:11:15.037Z,2.58
2022-09-06T16:14:00.625Z,3.50
2022-09-06T16:16:46.591Z,2.58
2022-09-06T16:19:32.916Z,2.38
2022-09-06T16:22:18.834Z,2.97
2022-09-06T16:25:05.192Z,2.88
2022-09-06T16:27:51.433Z,2.88
2022-09-06T16:30:42.629Z,2.75
2022-09-06T16:33:29.524Z,2.80
2022-09-06T16:36:15.867Z,2.53
2022-09-06T16:39:02.130Z,2.47
2022-09-06T16:41:48.223Z,2.88
2022-09-06T16:44:34.275Z,2.70
2022-09-06T16:47:19.791Z,2.88
2022-09-06T16:50:06.185Z,2.72
2022-09-06T16:52:52.333Z,2.63
2022-09-06T16:55:39.344Z,2.40
2022-09-06T16:58:25.648Z,2.63
2022-09-06T17:01:12.003Z,2.30
2022-09-06T17:03:57.957Z,2.42
2022-09-06T17:06:46.965Z,2.15
2022-09-06T17:09:35.239Z,2.78
2022-09-06T17:12:21.351Z,2.40
2022-09-06T17:15:07.612Z,2.80
2022-09-06T17:17:52.881Z,3.13
2022-09-06T17:20:40.424Z,2.55
2022-09-06T17:23:26.942Z,2.75
2022-09-06T17:26:13.500Z,2.95
2022-09-06T17:28:59.596Z,2.92
2022-09-06T17:31:45.910Z,2.75
2022-09-06T17:34:31.773Z,2.67
2022-09-06T17:37:17.834Z,2.85
2022-09-06T17:40:05.426Z,2.67
2022-09-06T17:42:52.299Z,2.95
2022-09-06T17:45:40.655Z,3.25
2022-09-06T17:48:28.318Z,2.88
2022-09-06T17:51:15.474Z,3.22
2022-09-06T17:54:01.794Z,3.03
2022-09-06T17:56:49.024Z,3.20
2022-09-06T17:59:35.962Z,2.80
2022-09-06T18:02:22.013Z,2.90
2022-09-06T18:05:10.036Z,3.13
2022-09-06T18:07:56.278Z,2.88
2022-09-06T18:10:43.491Z,3.03
2022-09-06T18:13:29.311Z,3.25
2022-09-06T18:16:15.254Z,2.97
2022-09-06T18:19:04.660Z,3.55
2022-09-06T18:21:51.505Z,3.47
2022-09-06T18:24:37.447Z,3.15
2022-09-06T18:27:23.679Z,3.17
2022-09-06T18:30:14.616Z,3.38
2022-09-06T18:33:00.645Z,3.30
2022-09-06T18:35:50.137Z,2.60
2022-09-06T18:38:37.602Z,3.47
2022-09-06T18:41:41.873Z,3.10
2022-09-06T18:44:33.649Z,3.13
2022-09-06T18:47:20.057Z,2.88
2022-09-06T18:50:08.012Z,2.90
2022-09-06T18:52:54.165Z,3.05
2022-09-06T18:55:43.873Z,2.70
2022-09-06T18:58:29.996Z,2.65
2022-09-06T19:01:17.973Z,2.80
2022-09-06T19:04:05.172Z,3.00
2022-09-06T19:06:50.842Z,3.60
2022-09-06T19:09:37.212Z,2.70
2022-09-06T19:12:24.041Z,2.50
2022-09-06T19:15:10.783Z,2.97
2022-09-06T19:17:57.068Z,2.80
2022-09-06T19:20:42.757Z,3.05
2022-09-06T19:23:31.852Z,3.17
2022-09-06T19:26:20.428Z,2.92
2022-09-06T19:29:09.014Z,3.08
2022-09-06T19:31:55.494Z,2.70
2022-09-06T19:34:41.830Z,2.65
2022-09-06T19:37:28.324Z,2.80
2022-09-06T19:40:14.252Z,2.60
2022-09-06T19:43:00.130Z,2.35
2022-09-06T19:45:46.429Z,2.40
2022-09-06T19:48:33.301Z,2.00
2022-09-06T19:51:19.983Z,2.20
2022-09-06T19:54:06.299Z,1.88
2022-09-06T19:56:52.735Z,2.30
2022-09-06T19:59:39.365Z,2.13
2022-09-06T20:02:25.705Z,1.98
2022-09-06T20:05:11.660Z,1.80
2022-09-06T20:07:57.850Z,1.73
2022-09-06T20:10:53.076Z,2.53
2022-09-06T20:13:40.408Z,1.75
2022-09-06T20:16:26.735Z,2.05
2022-09-06T20:19:14.867Z,1.77
2022-09-06T20:22:00.511Z,2.17
2022-09-06T20:24:46.694Z,2.08
2022-09-06T20:27:32.874Z,1.75
2022-09-06T20:30:18.914Z,2.03
2022-09-06T20:33:06.254Z,1.80
2022-09-06T20:36:02.732Z,2.28
2022-09-06T20:38:48.902Z,2.00
2022-09-06T20:41:34.771Z,2.33
2022-09-06T20:44:21.213Z,1.67
2022-09-06T20:47:07.018Z,1.98
2022-09-06T20:49:54.411Z,1.90
2022-09-06T20:52:41.088Z,2.08
2022-09-06T20:55:26.702Z,2.00
2022-09-06T20:58:12.719Z,1.90
2022-09-06T21:00:59.868Z,1.80
2022-09-06T21:03:46.295Z,2.00
2022-09-06T21:06:36.226Z,2.17
2022-09-06T21:09:22.141Z,2.20
2022-09-06T21:12:08.338Z,2.13
2022-09-06T21:14:54.983Z,2.33
2022-09-06T21:17:41.114Z,2.17
2022-09-06T21:20:27.117Z,2.00
2022-09-06T21:23:15.586Z,2.20
2022-09-06T21:26:05.084Z,2.08
2022-09-06T21:28:51.809Z,2.25
2022-09-06T21:31:38.178Z,2.20
2022-09-06T21:34:24.244Z,1.83
2022-09-06T21:37:09.904Z,2.80
2022-09-06T21:39:55.550Z,2.35
2022-09-06T21:42:41.531Z,2.10
2022-09-06T21:45:27.435Z,2.75
2022-09-06T21:48:18.238Z,2.53
2022-09-06T21:51:04.997Z,2.25
2022-09-06T21:53:51.979Z,2.15
2022-09-06T21:56:39.422Z,2.10
2022-09-06T21:59:24.937Z,2.63
2022-09-06T22:02:10.762Z,2.25
2022-09-06T22:04:57.073Z,2.72
2022-09-06T22:07:42.850Z,2.00
2022-09-06T22:10:28.672Z,2.05
2022-09-06T22:13:15.798Z,1.80
2022-09-06T22:16:07.538Z,2.55
2022-09-06T22:18:54.091Z,1.90
2022-09-06T22:21:40.281Z,2.13
2022-09-06T22:24:26.397Z,2.08
2022-09-06T22:27:12.389Z,2.42
2022-09-06T22:29:58.680Z,2.00
2022-09-06T22:32:44.235Z,1.85
2022-09-06T22:35:30.419Z,1.92
2022-09-06T22:38:15.732Z,1.80
2022-09-06T22:41:02.153Z,2.20
2022-09-06T22:43:48.141Z,2.38
2022-09-06T22:46:34.292Z,2.13
2022-09-06T22:49:20.185Z,2.10
2022-09-06T22:52:05.662Z,2.10
2022-09-06T22:54:51.618Z,2.25
2022-09-06T22:57:37.903Z,1.80
2022-09-06T23:00:23.489Z,2.47
2022-09-06T23:03:09.418Z,2.00
2022-09-06T23:06:00.761Z,2.13
2022-09-06T23:08:46.433Z,2.03
2022-09-06T23:11:32.774Z,2.03
2022-09-06T23:14:18.669Z,2.05
2022-09-06T23:17:05.067Z,1.75
2022-09-06T23:19:50.756Z,2.08
2022-09-06T23:22:37.520Z,1.90
2022-09-06T23:25:23.395Z,1.83
2022-09-06T23:28:09.272Z,2.15
2022-09-06T23:30:54.795Z,2.00
2022-09-06T23:33:41.863Z,1.88
2022-09-06T23:36:28.148Z,1.50
2022-09-06T23:39:13.957Z,1.70
2022-09-06T23:42:02.083Z,1.88
2022-09-06T23:44:48.196Z,1.20
2022-09-06T23:47:35.078Z,1.45
2022-09-06T23:50:21.048Z,1.10
2022-09-06T23:53:06.620Z,1.20
2022-09-06T23:55:52.457Z,1.40
2022-09-06T23:58:39.177Z,1.42
